Time,TemperatureF,DewpointF,PressureIn,WindDirection,WindDirectionDegrees,WindSpeedMPH,WindSpeedGustMPH,Humidity,HourlyPrecipIn,Conditions,Clouds,dailyrainin,SoftwareType,DateUTC
2013-12-19 00:00:00,18.0,-99.9,-100.00,NNE,21,57.0,75.0,-999,0.01,,,0.10,,2013-12-19 09:00:00,
2013-12-19 00:43:00,18.0,-99.9,-100.00,NNE,21,57.0,75.0,-999,0.01,,,0.10,,2013-12-19 09:43:00,
2013-12-19 00:54:00,18.0,-99.9,-100.00,NNE,21,57.0,75.0,-999,0.01,,,0.10,,2013-12-19 09:54:00,
2013-12-19 01:00:00,18.0,-99.9,-100.00,NNE,21,59.0,79.0,-999,0.02,,,0.12,,2013-12-19 10:00:00,
2013-12-19 01:43:00,18.0,-99.9,-100.00,NNE,21,59.0,79.0,-999,0.02,,,0.12,,2013-12-19 10:43:00,
2013-12-19 01:53:00,18.0,-99.9,-100.00,NNE,21,59.0,79.0,-999,0.02,,,0.12,,2013-12-19 10:53:00,
2013-12-19 02:00:00,19.0,-99.9,-100.00,NE,40,51.0,72.0,-999,0.00,,,0.12,,2013-12-19 11:00:00,
2013-12-19 02:42:00,19.0,-99.9,-100.00,NE,40,51.0,72.0,-999,0.00,,,0.12,,2013-12-19 11:42:00,
2013-12-19 02:53:00,19.0,-99.9,-100.00,NE,40,51.0,72.0,-999,0.00,,,0.12,,2013-12-19 11:53:00,
2013-12-19 03:00:00,20.0,-99.9,-100.00,NE,52,52.0,73.0,-999,0.01,,,0.13,,2013-12-19 12:00:00,
2013-12-19 03:42:00,20.0,-99.9,-100.00,NE,52,52.0,73.0,-999,0.01,,,0.13,,2013-12-19 12:42:00,
2013-12-19 03:52:00,20.0,-99.9,-100.00,NE,52,52.0,73.0,-999,0.01,,,0.13,,2013-12-19 12:52:00,
2013-12-19 04:00:00,20.0,-99.9,-100.00,NE,44,52.0,66.0,-999,0.00,,,0.12,,2013-12-19 13:00:00,
2013-12-19 04:42:00,20.0,-99.9,-100.00,NE,44,52.0,66.0,-999,0.00,,,0.12,,2013-12-19 13:42:00,
2013-12-19 04:53:00,20.0,-99.9,-100.00,NE,44,52.0,66.0,-999,0.00,,,0.12,,2013-12-19 13:53:00,
2013-12-19 05:00:00,20.0,-99.9,-100.00,NE,38,44.0,53.0,-999,0.01,,,0.13,,2013-12-19 14:00:00,
2013-12-19 05:42:00,20.0,-99.9,-100.00,NE,38,44.0,53.0,-999,0.01,,,0.13,,2013-12-19 14:42:00,
2013-12-19 05:53:00,20.0,-99.9,-100.00,NE,38,44.0,53.0,-999,0.01,,,0.13,,2013-12-19 14:53:00,
2013-12-19 06:00:00,20.0,-99.9,-100.00,NNE,27,35.0,40.0,-999,0.00,,,0.13,,2013-12-19 15:00:00,
2013-12-19 06:43:00,20.0,-99.9,-100.00,NNE,27,35.0,40.0,-999,0.00,,,0.13,,2013-12-19 15:43:00,
2013-12-19 06:54:00,20.0,-99.9,-100.00,NNE,27,35.0,40.0,-999,0.00,,,0.13,,2013-12-19 15:54:00,
2013-12-19 07:00:00,21.0,-99.9,-100.00,NE,52,27.0,33.0,-999,0.00,,,0.13,,2013-12-19 16:00:00,
2013-12-19 07:43:00,21.0,-99.9,-100.00,NE,52,27.0,33.0,-999,0.00,,,0.13,,2013-12-19 16:43:00,
2013-12-19 07:53:00,21.0,-99.9,-100.00,NE,52,27.0,33.0,-999,0.00,,,0.13,,2013-12-19 16:53:00,
2013-12-19 08:00:00,22.0,-99.9,-100.00,NE,39,21.0,25.0,-999,0.00,,,0.14,,2013-12-19 17:00:00,
2013-12-19 08:42:00,22.0,-99.9,-100.00,NE,39,21.0,25.0,-999,0.00,,,0.14,,2013-12-19 17:42:00,
2013-12-19 08:53:00,22.0,-99.9,-100.00,NE,39,21.0,25.0,-999,0.00,,,0.14,,2013-12-19 17:53:00,
2013-12-19 09:00:00,22.0,-99.9,-100.00,ENE,59,17.0,22.0,-999,0.00,,,0.14,,2013-12-19 18:00:00,
2013-12-19 09:42:00,22.0,-99.9,-100.00,ENE,59,17.0,22.0,-999,0.00,,,0.14,,2013-12-19 18:42:00,
2013-12-19 09:52:00,22.0,-99.9,-100.00,ENE,59,17.0,22.0,-999,0.00,,,0.14,,2013-12-19 18:52:00,
2013-12-19 10:00:00,22.0,-99.9,-100.00,NNE,23,17.0,22.0,-999,0.00,,,0.14,,2013-12-19 19:00:00,
2013-12-19 10:42:00,22.0,-99.9,-100.00,NNE,23,17.0,22.0,-999,0.00,,,0.14,,2013-12-19 19:42:00,
2013-12-19 10:52:00,22.0,-99.9,-100.00,NNE,23,17.0,22.0,-999,0.00,,,0.14,,2013-12-19 19:52:00,
2013-12-19 11:00:00,22.0,-99.9,-100.00,NE,42,15.0,18.0,-999,0.01,,,0.15,,2013-12-19 20:00:00,
2013-12-19 11:42:00,22.0,-99.9,-100.00,NE,42,15.0,18.0,-999,0.01,,,0.15,,2013-12-19 20:42:00,
2013-12-19 11:52:00,22.0,-99.9,-100.00,NE,42,15.0,18.0,-999,0.01,,,0.15,,2013-12-19 20:52:00,
2013-12-19 12:00:00,22.0,-99.9,-100.00,NE,36,9.0,13.0,-999,0.00,,,0.15,,2013-12-19 21:00:00,
2013-12-19 12:43:00,22.0,-99.9,-100.00,NE,36,9.0,13.0,-999,0.00,,,0.15,,2013-12-19 21:43:00,
2013-12-19 12:53:00,22.0,-99.9,-100.00,NE,36,9.0,13.0,-999,0.00,,,0.15,,2013-12-19 21:53:00,
2013-12-19 13:00:00,22.0,-99.9,-100.00,North,1,2.0,5.0,-999,0.00,,,0.14,,2013-12-19 22:00:00,
2013-12-19 13:43:00,22.0,-99.9,-100.00,North,1,2.0,5.0,-999,0.00,,,0.14,,2013-12-19 22:43:00,
2013-12-19 13:53:00,22.0,-99.9,-100.00,North,1,2.0,5.0,-999,0.00,,,0.14,,2013-12-19 22:53:00,
2013-12-19 14:00:00,23.0,-99.9,-100.00,WSW,248,1.0,3.0,-999,0.00,,,0.12,,2013-12-19 23:00:00,
2013-12-19 14:42:00,23.0,-99.9,-100.00,WSW,248,1.0,3.0,-999,0.00,,,0.12,,2013-12-19 23:42:00,
2013-12-19 14:53:00,23.0,-99.9,-100.00,WSW,248,1.0,3.0,-999,0.00,,,0.12,,2013-12-19 23:53:00,
2013-12-19 15:00:00,22.0,-99.9,-100.00,NW,313,4.0,6.0,-999,0.00,,,0.12,,2013-12-20 00:00:00,
2013-12-19 15:42:00,22.0,-99.9,-100.00,NW,313,4.0,6.0,-999,0.00,,,0.12,,2013-12-20 00:42:00,
2013-12-19 15:53:00,22.0,-99.9,-100.00,NW,313,4.0,6.0,-999,0.00,,,0.12,,2013-12-20 00:53:00,
2013-12-19 16:00:00,20.0,-99.9,-100.00,NW,313,0.0,0.0,-999,0.00,,,0.11,,2013-12-20 01:00:00,
2013-12-19 16:42:00,20.0,-99.9,-100.00,NW,313,0.0,0.0,-999,0.00,,,0.11,,2013-12-20 01:42:00,
2013-12-19 16:52:00,20.0,-99.9,-100.00,NW,313,0.0,0.0,-999,0.00,,,0.11,,2013-12-20 01:52:00,
2013-12-19 17:00:00,20.0,-99.9,-100.00,NW,313,2.0,3.0,-999,0.00,,,0.10,,2013-12-20 02:00:00,
2013-12-19 17:42:00,20.0,-99.9,-100.00,NW,313,2.0,3.0,-999,0.00,,,0.10,,2013-12-20 02:42:00,
2013-12-19 17:53:00,20.0,-99.9,-100.00,NW,313,2.0,3.0,-999,0.00,,,0.10,,2013-12-20 02:53:00,
2013-12-19 18:00:00,20.0,-99.9,-100.00,NW,313,1.0,2.0,-999,0.00,,,0.10,,2013-12-20 03:00:00,
2013-12-19 18:44:00,20.0,-99.9,-100.00,NW,313,1.0,2.0,-999,0.00,,,0.10,,2013-12-20 03:44:00,
2013-12-19 18:53:00,20.0,-99.9,-100.00,NW,313,1.0,2.0,-999,0.00,,,0.10,,2013-12-20 03:53:00,
2013-12-19 19:00:00,20.0,-99.9,-100.00,NW,313,1.0,2.0,-999,0.00,,,0.10,,2013-12-20 04:00:00,
2013-12-19 19:43:00,20.0,-99.9,-100.00,NW,313,1.0,2.0,-999,0.00,,,0.10,,2013-12-20 04:43:00,
2013-12-19 19:53:00,20.0,-99.9,-100.00,NW,313,1.0,2.0,-999,0.00,,,0.10,,2013-12-20 04:53:00,
2013-12-19 20:00:00,20.0,-99.9,-100.00,NW,313,0.0,0.0,-999,0.00,,,0.08,,2013-12-20 05:00:00,
2013-12-19 20:43:00,20.0,-99.9,-100.00,NW,313,0.0,0.0,-999,0.00,,,0.08,,2013-12-20 05:43:00,
2013-12-19 20:53:00,20.0,-99.9,-100.00,NW,313,0.0,0.0,-999,0.00,,,0.08,,2013-12-20 05:53:00,
2013-12-19 21:00:00,20.0,-99.9,-100.00,NW,313,0.0,0.0,-999,-99.99,,,0.06,,2013-12-20 06:00:00,
2013-12-19 21:43:00,20.0,-99.9,-100.00,NW,313,0.0,0.0,-999,-99.99,,,0.06,,2013-12-20 06:43:00,
2013-12-19 21:52:00,20.0,-99.9,-100.00,NW,313,0.0,0.0,-999,-99.99,,,0.06,,2013-12-20 06:52:00,
2013-12-19 22:00:00,22.0,-99.9,-100.00,NW,313,4.0,6.0,-999,0.00,,,0.05,,2013-12-20 07:00:00,
2013-12-19 22:43:00,22.0,-99.9,-100.00,NW,313,4.0,6.0,-999,0.00,,,0.05,,2013-12-20 07:43:00,
2013-12-19 22:53:00,22.0,-99.9,-100.00,NW,313,4.0,6.0,-999,0.00,,,0.05,,2013-12-20 07:53:00,
2013-12-19 23:00:00,21.0,-99.9,-100.00,WNW,285,5.0,9.0,-999,0.01,,,0.06,,2013-12-20 08:00:00,
2013-12-19 23:42:00,21.0,-99.9,-100.00,WNW,285,5.0,9.0,-999,0.01,,,0.06,,2013-12-20 08:42:00,
2013-12-19 23:52:00,21.0,-99.9,-100.00,WNW,285,5.0,9.0,-999,0.01,,,0.06,,2013-12-20 08:52:00,